Sepulveda, California
Current Conditions -  °F | °C
As of 7:53 PM on Sunday 21 Dec 2014 (Local Time) from KBUR Reporting Station
Clear Clear  
Wind Chill: 60°   Ceiling: Unl
Heat Index: 60°   Visibility: 8mi
Dew Point: 51°   Wind: 6mph
Humidity: 72%   Direction: 130°SE
Pressure: 30.05"   Gusts: NA
Location:  34.1618°N, 118.281°W
Report Text: KBUR 220353Z 13005KT 8SM CLR 16/11 A3005 RMK AO2 SLP169 T01560106
Loading
Personal Weather Stations






























Interactive Weather Map New forecast layout! Learn more

10-Day Weather Forecast

Advertisements
Track Severe Weather on mobile